Time;durP1;ratioP1;P1;durP2;ratioP2;P2;SDS_P1;SDS_P2;PMS_P1;PMS_P2;Temp;Humidity;BMP_temperature;BMP_pressure;BME280_temperature;BME280_humidity;BME280_pressure;Samples;Min_cycle;Max_cycle;Signal;HPM_P1;HPM_P2
2021/12/22 00:00:59;;;;;;;17.48;8.85;;;;;;;-3.61;69.82;98419.47;1731031;82;21481;-81
2021/12/22 00:03:26;;;;;;;18.55;9.20;;;;;;;-3.65;69.63;98412.41;1731063;83;21019;-81
2021/12/22 00:05:53;;;;;;;16.15;7.92;;;;;;;-3.68;69.74;98418.81;1726036;82;21113;-82
2021/12/22 00:08:20;;;;;;;19.20;9.65;;;;;;;-3.70;70.34;98413.97;1714805;81;20986;-81
2021/12/22 00:10:49;;;;;;;18.77;9.70;;;;;;;-3.66;70.18;98421.02;1730329;82;20971;-81
2021/12/22 00:13:16;;;;;;;23.62;10.88;;;;;;;-3.63;70.06;98421.55;1767423;81;21040;-81
2021/12/22 00:15:43;;;;;;;18.37;9.35;;;;;;;-3.68;70.06;98416.63;1745890;81;21002;-81
2021/12/22 00:18:09;;;;;;;19.10;10.03;;;;;;;-3.65;70.10;98426.66;1767664;81;20989;-81
2021/12/22 00:20:36;;;;;;;20.17;10.20;;;;;;;-3.60;70.09;98430.73;1767557;81;21025;-81
2021/12/22 00:23:03;;;;;;;21.48;9.58;;;;;;;-3.54;70.21;98423.59;1767566;80;21438;-81
2021/12/22 00:25:29;;;;;;;19.07;8.95;;;;;;;-3.51;70.36;98428.85;1761815;80;21462;-82
2021/12/22 00:27:58;;;;;;;15.15;9.03;;;;;;;-3.47;70.33;98425.54;1701890;84;20954;-82
2021/12/22 00:30:26;;;;;;;17.82;8.98;;;;;;;-3.43;70.48;98414.45;1737278;83;21005;-81
2021/12/22 00:32:56;;;;;;;20.25;9.63;;;;;;;-3.42;70.25;98420.09;1737215;82;21000;-81
2021/12/22 00:35:29;;;;;;;15.65;9.20;;;;;;;-3.41;70.27;98434.80;1737226;82;21021;-81
2021/12/22 00:37:54;;;;;;;19.37;9.55;;;;;;;-3.42;70.25;98443.81;1737188;82;20997;-81
2021/12/22 00:40:21;;;;;;;19.57;9.90;;;;;;;-3.43;70.27;98444.25;1758847;81;21442;-81
2021/12/22 00:42:47;;;;;;;18.20;9.83;;;;;;;-3.45;70.44;98441.61;1761016;81;20974;-81
2021/12/22 00:45:16;;;;;;;18.25;9.68;;;;;;;-3.43;70.50;98449.84;1747229;81;21002;-81
2021/12/22 00:47:42;;;;;;;16.07;9.10;;;;;;;-3.45;70.67;98450.67;1737268;81;20990;-81
2021/12/22 00:50:10;;;;;;;16.35;8.95;;;;;;;-3.47;70.65;98448.45;1767565;81;21037;-81
2021/12/22 00:52:37;;;;;;;21.02;9.25;;;;;;;-3.48;71.04;98441.92;1767465;81;20989;-81
2021/12/22 00:55:05;;;;;;;19.30;9.48;;;;;;;-3.46;70.70;98441.55;1753341;81;21076;-81
2021/12/22 00:57:33;;;;;;;15.53;8.48;;;;;;;-3.50;70.60;98447.05;1727907;83;21057;-81
2021/12/22 00:59:59;;;;;;;17.32;9.45;;;;;;;-3.52;70.66;98450.42;1729307;83;21427;-81
2021/12/22 01:02:27;;;;;;;21.75;9.88;;;;;;;-3.53;70.95;98438.30;1701668;83;21029;-81
2021/12/22 01:04:53;;;;;;;21.35;9.85;;;;;;;-3.54;71.31;98451.66;1701912;83;21026;-81
2021/12/22 01:07:20;;;;;;;17.73;9.60;;;;;;;-3.50;71.21;98449.64;1701901;83;20974;-81
2021/12/22 01:09:46;;;;;;;17.75;9.58;;;;;;;-3.46;71.02;98456.69;1701850;83;21403;-81
2021/12/22 01:12:13;;;;;;;16.35;8.35;;;;;;;-3.49;71.04;98453.98;1701914;83;21013;-81
2021/12/22 01:14:41;;;;;;;18.67;9.08;;;;;;;-3.52;71.48;98451.71;1701839;83;21002;-82
2021/12/22 01:17:11;;;;;;;18.80;10.05;;;;;;;-3.54;71.33;98452.09;1714566;83;21026;-81
2021/12/22 01:19:49;;;;;;;20.70;10.40;;;;;;;-3.57;71.42;98443.80;1730927;82;21021;-80
2021/12/22 01:22:26;;;;;;;19.90;9.55;;;;;;;-3.58;71.50;98450.67;1704538;83;21463;-81
2021/12/22 01:24:58;;;;;;;16.85;9.10;;;;;;;-3.60;71.58;98444.98;1705000;83;21045;-81
2021/12/22 01:27:22;;;;;;;17.80;9.60;;;;;;;-3.52;71.77;98451.71;1701009;83;21017;-81
2021/12/22 01:29:45;;;;;;;16.77;9.05;;;;;;;-3.51;72.01;98446.99;1701541;84;21553;-80
2021/12/22 01:32:13;;;;;;;20.17;9.53;;;;;;;-3.56;72.05;98451.14;1701835;84;21022;-81
2021/12/22 01:34:39;;;;;;;19.17;9.48;;;;;;;-3.59;71.75;98451.91;1706219;83;21332;-81
2021/12/22 01:37:06;;;;;;;19.17;9.25;;;;;;;-3.62;72.49;98447.51;1715675;83;21044;-82
2021/12/22 01:39:32;;;;;;;20.68;10.05;;;;;;;-3.66;72.14;98450.81;1731046;83;20982;-81
2021/12/22 01:41:58;;;;;;;19.70;10.00;;;;;;;-3.65;72.18;98455.16;1730875;83;21423;-81
2021/12/22 01:44:45;;;;;;;19.55;10.10;;;;;;;-3.67;73.05;98454.64;1721011;82;21037;-80
2021/12/22 01:49:52;;;;;;;19.55;9.75;;;;;;;-3.80;74.09;98446.46;1701917;84;21017;-80
2021/12/22 01:52:21;;;;;;;25.77;10.50;;;;;;;-3.78;73.61;98447.81;1681892;84;21049;-79
2021/12/22 01:55:05;;;;;;;22.45;11.30;;;;;;;-3.80;73.60;98448.16;1706561;82;21022;-79
2021/12/22 01:57:34;;;;;;;22.48;10.30;;;;;;;-3.81;73.86;98441.22;1718747;82;21029;-79
2021/12/22 02:00:02;;;;;;;21.85;10.43;;;;;;;-3.79;73.52;98444.77;1739487;82;20977;-79
2021/12/22 02:02:29;;;;;;;21.17;10.70;;;;;;;-3.78;73.26;98443.94;1739218;82;21009;-79
2021/12/22 02:04:55;;;;;;;20.48;11.33;;;;;;;-3.82;73.75;98440.77;1754460;81;20998;-79
2021/12/22 02:07:22;;;;;;;19.30;9.98;;;;;;;-3.87;73.62;98441.88;1769586;81;21375;-79
2021/12/22 02:10:03;;;;;;;22.17;11.05;;;;;;;-3.88;73.85;98450.48;1769685;81;21045;-81
2021/12/22 02:12:19;;;;;;;19.40;9.93;;;;;;;-3.93;73.69;98445.55;1767417;81;21088;-81
2021/12/22 02:14:46;;;;;;;17.92;9.95;;;;;;;-3.93;73.73;98442.97;1756473;81;21045;-82
2021/12/22 02:17:14;;;;;;;21.85;10.88;;;;;;;-3.90;73.78;98445.67;1739147;82;21001;-81
2021/12/22 02:19:43;;;;;;;19.82;10.23;;;;;;;-3.91;74.04;98444.78;1739043;82;21013;-81
2021/12/22 02:22:13;;;;;;;17.90;9.50;;;;;;;-3.94;74.62;98445.98;1754008;81;21486;-81
2021/12/22 02:24:41;;;;;;;19.95;9.55;;;;;;;-3.95;74.64;98443.34;1769755;81;21013;-81
2021/12/22 02:27:17;;;;;;;20.10;9.93;;;;;;;-3.93;74.42;98439.08;1754240;81;20985;-81
2021/12/22 02:29:38;;;;;;;18.98;9.88;;;;;;;-3.92;74.33;98443.42;1738042;82;21017;-81
2021/12/22 02:34:41;;;;;;;23.57;11.03;;;;;;;-3.92;74.57;98444.32;1725753;82;21459;-82
2021/12/22 02:37:10;;;;;;;22.10;10.78;;;;;;;-3.96;75.06;98452.80;1738283;82;21031;-81
2021/12/22 02:39:31;;;;;;;21.85;10.78;;;;;;;-4.01;75.16;98450.06;1738487;82;21017;-81
2021/12/22 02:41:58;;;;;;;22.87;11.63;;;;;;;-4.01;75.25;98453.05;1758397;81;20993;-82
2021/12/22 02:44:24;;;;;;;18.30;9.85;;;;;;;-4.06;75.33;98449.02;1769710;81;21021;-81
2021/12/22 02:46:51;;;;;;;21.10;10.90;;;;;;;-4.06;75.47;98446.42;1769767;81;21014;-81
2021/12/22 02:49:17;;;;;;;22.93;10.98;;;;;;;-4.05;74.96;98454.66;1769649;81;21013;-81
2021/12/22 02:51:44;;;;;;;19.20;10.63;;;;;;;-4.05;75.37;98449.88;1753933;80;21386;-81
2021/12/22 02:56:53;;;;;;;21.00;10.15;;;;;;;-4.08;75.75;98451.08;1747660;82;21013;-81
2021/12/22 03:04:27;;;;;;;17.30;9.38;;;;;;;-4.15;77.38;98458.60;1775334;81;21466;-81
2021/12/22 03:06:57;;;;;;;20.48;9.53;;;;;;;-4.35;79.31;98460.47;1774653;81;21045;-80
2021/12/22 03:09:29;;;;;;;14.87;7.80;;;;;;;-4.35;77.58;98472.52;1768504;81;21065;-81
2021/12/22 03:12:01;;;;;;;9.70;5.62;;;;;;;-4.38;77.69;98474.18;1762336;81;21407;-81
2021/12/22 03:14:29;;;;;;;9.05;4.33;;;;;;;-4.39;77.69;98467.22;1775244;80;21053;-80
2021/12/22 03:16:58;;;;;;;6.60;3.55;;;;;;;-4.44;78.99;98477.80;1775133;80;21013;-80
2021/12/22 03:19:29;;;;;;;6.20;3.10;;;;;;;-4.45;77.91;98474.75;1768597;80;21037;-80
2021/12/22 03:22:03;;;;;;;5.55;3.35;;;;;;;-4.45;78.58;98475.19;1744383;82;21486;-81
2021/12/22 03:24:31;;;;;;;6.47;3.58;;;;;;;-4.44;78.62;98475.65;1746827;80;20978;-80
2021/12/22 03:27:02;;;;;;;5.95;3.65;;;;;;;-4.45;77.92;98466.99;1774763;81;21423;-80
2021/12/22 03:29:29;;;;;;;6.83;3.47;;;;;;;-4.49;78.07;98481.92;1774351;81;21016;-81
2021/12/22 03:31:56;;;;;;;6.62;3.67;;;;;;;-4.58;78.92;98476.39;1775363;81;21020;-81
2021/12/22 03:34:23;;;;;;;5.40;3.08;;;;;;;-4.60;78.30;98484.13;1775482;81;21403;-81
2021/12/22 03:36:49;;;;;;;6.40;2.95;;;;;;;-4.61;78.20;98485.34;1775298;81;21597;-81
2021/12/22 03:39:16;;;;;;;4.72;2.67;;;;;;;-4.64;78.45;98492.15;1750367;80;20969;-81
2021/12/22 03:41:46;;;;;;;7.37;2.85;;;;;;;-4.70;77.62;98488.47;1744863;82;20993;-81
2021/12/22 03:44:13;;;;;;;5.30;3.35;;;;;;;-4.71;77.76;98484.98;1773184;79;20954;-81
2021/12/22 03:46:40;;;;;;;6.00;3.10;;;;;;;-4.73;77.38;98484.06;1781195;80;21452;-81
2021/12/22 03:49:09;;;;;;;4.65;2.75;;;;;;;-4.72;77.47;98488.80;1775599;80;20961;-81
2021/12/22 03:51:37;;;;;;;3.52;1.98;;;;;;;-4.78;77.46;98486.84;1775087;81;21189;-81
2021/12/22 03:54:09;;;;;;;5.30;3.00;;;;;;;-4.72;77.19;98487.11;1775478;81;21017;-80
2021/12/22 03:56:37;;;;;;;7.25;2.98;;;;;;;-4.77;77.14;98481.73;1775970;81;21482;-81
2021/12/22 03:59:04;;;;;;;3.98;2.75;;;;;;;-4.74;77.31;98482.70;1759228;80;21477;-80
2021/12/22 04:01:31;;;;;;;6.53;3.20;;;;;;;-4.65;77.25;98475.30;1750207;82;21436;-81
2021/12/22 04:04:02;;;;;;;6.08;3.02;;;;;;;-4.61;77.63;98482.33;1750007;81;21000;-81
2021/12/22 04:06:26;;;;;;;7.50;3.30;;;;;;;-4.58;76.95;98493.20;1749306;82;21051;-81
2021/12/22 04:08:53;;;;;;;4.10;2.58;;;;;;;-4.60;77.07;98494.87;1768831;80;21009;-81
2021/12/22 04:11:19;;;;;;;3.62;2.45;;;;;;;-4.74;77.31;98499.52;1780846;80;21008;-81
2021/12/22 04:13:46;;;;;;;4.40;3.27;;;;;;;-4.81;77.66;98493.21;1780896;80;21426;-81
2021/12/22 04:16:12;;;;;;;6.97;3.17;;;;;;;-4.75;77.34;98501.20;1780870;80;21009;-81
2021/12/22 04:18:39;;;;;;;6.25;3.15;;;;;;;-4.70;77.03;98500.11;1765606;80;21044;-81
2021/12/22 04:21:05;;;;;;;6.83;2.77;;;;;;;-4.66;77.02;98499.37;1750078;82;21438;-82
2021/12/22 04:23:32;;;;;;;6.28;3.08;;;;;;;-4.59;76.94;98500.50;1750129;81;20989;-81
2021/12/22 04:25:58;;;;;;;5.10;2.90;;;;;;;-4.56;76.96;98508.00;1756530;80;20973;-81
2021/12/22 04:28:25;;;;;;;5.03;2.62;;;;;;;-4.49;76.78;98514.70;1749774;82;21458;-81
2021/12/22 04:30:52;;;;;;;6.70;2.90;;;;;;;-4.51;76.69;98515.52;1750264;82;20988;-81
2021/12/22 04:33:19;;;;;;;5.92;3.12;;;;;;;-4.53;76.62;98518.44;1750072;82;21481;-81
2021/12/22 04:35:48;;;;;;;5.50;2.95;;;;;;;-4.53;76.39;98524.91;1750120;81;21414;-81
2021/12/22 04:38:15;;;;;;;5.75;2.58;;;;;;;-4.49;76.42;98527.20;1780394;80;21570;-81
2021/12/22 04:40:42;;;;;;;4.53;2.70;;;;;;;-4.45;76.36;98533.40;1780726;80;20992;-81
2021/12/22 04:43:09;;;;;;;7.20;3.15;;;;;;;-4.51;76.19;98539.20;1780736;80;21009;-81
2021/12/22 04:45:36;;;;;;;7.47;2.90;;;;;;;-4.58;76.29;98541.96;1780999;80;20969;-81
2021/12/22 04:48:03;;;;;;;4.97;3.02;;;;;;;-4.59;76.22;98545.37;1778748;80;21040;-80
2021/12/22 04:50:32;;;;;;;4.72;2.83;;;;;;;-4.60;77.02;98546.60;1780366;79;21395;-81
2021/12/22 04:53:04;;;;;;;5.60;2.37;;;;;;;-4.64;76.94;98555.95;1767783;80;21021;-80
2021/12/22 04:55:28;;;;;;;4.50;2.92;;;;;;;-4.68;76.15;98547.19;1779781;80;21390;-79
2021/12/22 04:57:58;;;;;;;8.20;3.10;;;;;;;-4.69;76.25;98547.98;1769016;81;21490;-80
2021/12/22 05:00:29;;;;;;;5.40;2.90;;;;;;;-4.71;76.04;98539.70;1769815;80;20966;-80
2021/12/22 05:02:58;;;;;;;4.60;2.52;;;;;;;-4.72;75.83;98541.81;1769679;81;20997;-80
2021/12/22 05:05:26;;;;;;;4.90;2.92;;;;;;;-4.79;76.29;98536.41;1769698;80;21005;-80
2021/12/22 05:07:53;;;;;;;8.73;3.62;;;;;;;-4.78;76.28;98538.16;1744829;81;21060;-80
2021/12/22 05:10:21;;;;;;;6.12;3.62;;;;;;;-4.78;76.54;98529.52;1739258;82;21084;-80
2021/12/22 05:12:48;;;;;;;5.45;3.27;;;;;;;-4.75;76.07;98530.94;1739225;82;21435;-80
2021/12/22 05:15:23;;;;;;;6.55;3.17;;;;;;;-4.80;76.19;98534.65;1739285;82;22217;-80
2021/12/22 05:20:21;;;;;;;6.80;3.42;;;;;;;-4.87;76.92;98539.52;1737006;82;21077;-79
2021/12/22 05:22:48;;;;;;;5.90;3.15;;;;;;;-4.87;76.54;98540.80;1734433;83;21431;-80
2021/12/22 05:25:15;;;;;;;6.60;3.10;;;;;;;-4.84;76.43;98545.69;1744425;81;21001;-80
2021/12/22 05:27:41;;;;;;;6.72;3.37;;;;;;;-4.81;77.38;98543.63;1766387;81;20978;-80
2021/12/22 05:30:11;;;;;;;6.08;3.08;;;;;;;-4.83;77.16;98540.08;1769714;81;20989;-81
2021/12/22 05:32:38;;;;;;;7.22;3.60;;;;;;;-4.85;77.64;98546.91;1769681;81;21060;-81
2021/12/22 05:35:09;;;;;;;9.00;3.55;;;;;;;-4.90;77.06;98546.30;1768669;81;21423;-82
2021/12/22 05:37:36;;;;;;;7.62;3.55;;;;;;;-4.99;77.59;98551.09;1769883;80;21010;-82
2021/12/22 05:40:06;;;;;;;8.23;4.30;;;;;;;-5.00;77.40;98551.02;1769653;81;21072;-82
2021/12/22 05:42:33;;;;;;;6.22;3.22;;;;;;;-5.06;78.12;98554.27;1769747;81;21009;-82
2021/12/22 05:44:59;;;;;;;7.08;3.50;;;;;;;-5.04;77.96;98556.48;1769109;81;20969;-82
2021/12/22 05:47:25;;;;;;;7.22;3.85;;;;;;;-5.07;78.36;98551.20;1769599;80;21446;-82
2021/12/22 05:49:52;;;;;;;8.33;4.17;;;;;;;-5.08;78.30;98549.02;1769619;81;21012;-82
2021/12/22 05:52:18;;;;;;;6.87;3.72;;;;;;;-5.07;78.88;98548.62;1769680;81;21001;-82
2021/12/22 05:54:45;;;;;;;11.33;3.92;;;;;;;-5.07;78.26;98544.75;1744223;81;21064;-82
2021/12/22 05:57:12;;;;;;;9.00;3.60;;;;;;;-5.09;78.21;98547.27;1745961;82;21059;-82
2021/12/22 05:59:39;;;;;;;5.67;3.65;;;;;;;-5.12;78.26;98542.38;1749691;82;21422;-81
2021/12/22 06:02:05;;;;;;;9.43;4.17;;;;;;;-5.11;78.24;98559.65;1749716;82;21067;-82
2021/12/22 06:04:32;;;;;;;5.17;2.62;;;;;;;-5.18;79.21;98560.66;1772054;81;20996;-82
2021/12/22 06:06:58;;;;;;;9.35;4.67;;;;;;;-5.27;79.99;98560.70;1780478;80;21008;-82
2021/12/22 06:09:24;;;;;;;11.03;6.08;;;;;;;-5.26;79.55;98563.34;1780515;80;21040;-82
2021/12/22 06:11:51;;;;;;;12.80;5.87;;;;;;;-5.23;79.39;98567.77;1780518;81;20985;-81
2021/12/22 06:14:17;;;;;;;12.58;5.45;;;;;;;-5.24;79.30;98577.63;1761300;81;21028;-81
2021/12/22 06:16:44;;;;;;;14.45;6.35;;;;;;;-5.22;79.85;98570.81;1761298;81;21008;-82
2021/12/22 06:19:12;;;;;;;14.28;6.72;;;;;;;-5.19;79.54;98580.86;1778881;80;21048;-81
2021/12/22 06:21:39;;;;;;;13.18;6.12;;;;;;;-5.20;79.45;98577.81;1779146;81;20985;-81
2021/12/22 06:24:06;;;;;;;14.87;6.65;;;;;;;-5.20;80.14;98575.23;1779023;80;20982;-81
2021/12/22 06:26:32;;;;;;;15.20;7.15;;;;;;;-5.20;79.54;98584.67;1777082;80;21040;-81
2021/12/22 06:28:59;;;;;;;15.70;6.95;;;;;;;-5.22;80.14;98585.92;1779196;81;21032;-82
2021/12/22 06:31:26;;;;;;;17.73;6.65;;;;;;;-5.20;79.10;98583.37;1779154;81;20985;-82
2021/12/22 06:33:52;;;;;;;11.57;5.45;;;;;;;-5.21;78.72;98586.78;1778969;81;21453;-82
2021/12/22 06:36:19;;;;;;;12.35;5.72;;;;;;;-5.19;78.41;98596.80;1780766;80;21029;-81
2021/12/22 06:38:46;;;;;;;13.25;5.78;;;;;;;-5.15;78.10;98593.50;1780833;81;21052;-81
2021/12/22 06:41:12;;;;;;;11.78;5.33;;;;;;;-5.19;77.48;98596.80;1780688;81;20970;-81
2021/12/22 06:43:39;;;;;;;8.35;3.75;;;;;;;-5.20;77.63;98597.20;1772363;81;21405;-81
2021/12/22 06:46:05;;;;;;;7.42;4.28;;;;;;;-5.16;76.58;98593.03;1749898;82;21049;-80
2021/12/22 06:48:32;;;;;;;8.65;4.20;;;;;;;-5.15;75.99;98596.09;1750064;82;21029;-80
2021/12/22 06:50:58;;;;;;;5.67;3.80;;;;;;;-5.12;76.22;98613.03;1749994;81;21008;-81
2021/12/22 06:53:25;;;;;;;8.53;3.77;;;;;;;-5.08;75.97;98615.33;1776390;81;21029;-81
2021/12/22 06:55:52;;;;;;;6.45;3.45;;;;;;;-5.05;75.62;98609.01;1780551;81;21422;-81
2021/12/22 06:58:18;;;;;;;6.67;3.37;;;;;;;-5.04;75.14;98606.49;1780702;80;20977;-81
2021/12/22 07:00:45;;;;;;;6.62;3.20;;;;;;;-5.01;75.05;98600.97;1780916;80;21029;-82
2021/12/22 07:03:12;;;;;;;6.00;3.10;;;;;;;-5.03;74.77;98608.65;1773557;80;20997;-81
2021/12/22 07:05:38;;;;;;;8.65;4.35;;;;;;;-5.02;74.36;98602.69;1781119;80;20993;-81
2021/12/22 07:08:05;;;;;;;9.13;4.20;;;;;;;-5.01;74.55;98612.20;1781068;80;21060;-82
2021/12/22 07:10:31;;;;;;;6.70;3.58;;;;;;;-4.98;74.75;98615.33;1781171;80;20985;-82
2021/12/22 07:12:58;;;;;;;6.95;3.87;;;;;;;-4.96;74.89;98616.27;1769384;79;20977;-81
2021/12/22 07:15:24;;;;;;;6.95;3.85;;;;;;;-4.89;74.45;98615.72;1779326;81;20961;-81
2021/12/22 07:17:51;;;;;;;6.25;3.85;;;;;;;-4.90;74.16;98616.55;1779311;81;21403;-81
2021/12/22 07:20:19;;;;;;;6.92;4.05;;;;;;;-4.84;73.97;98614.20;1779218;81;20938;-82
2021/12/22 07:22:46;;;;;;;9.75;4.22;;;;;;;-4.77;74.59;98616.64;1779448;80;21036;-82
2021/12/22 07:25:15;;;;;;;9.13;4.53;;;;;;;-4.65;73.92;98626.61;1779442;80;20985;-81
2021/12/22 07:27:41;;;;;;;9.75;3.87;;;;;;;-4.60;73.70;98622.52;1770269;79;21024;-82
2021/12/22 07:30:10;;;;;;;13.13;5.08;;;;;;;-4.55;72.99;98629.16;1750124;82;21016;-80
2021/12/22 07:32:37;;;;;;;8.23;3.87;;;;;;;-4.57;70.72;98625.20;1750775;80;21478;-80
2021/12/22 07:35:17;;;;;;;8.28;4.08;;;;;;;-4.54;73.70;98637.37;1750069;82;21004;-82
2021/12/22 07:38:01;;;;;;;8.63;4.70;;;;;;;-4.54;68.67;98628.33;1750207;82;21465;-81
2021/12/22 07:40:28;;;;;;;11.12;4.67;;;;;;;-4.49;71.54;98629.39;1751208;80;21429;-81
2021/12/22 07:42:54;;;;;;;9.83;4.72;;;;;;;-4.45;71.08;98632.59;1750626;80;21036;-82
2021/12/22 07:45:21;;;;;;;12.60;5.20;;;;;;;-4.47;70.25;98630.36;1749479;82;21043;-82
2021/12/22 07:47:47;;;;;;;9.03;4.25;;;;;;;-4.48;69.29;98629.89;1750122;81;21044;-82
2021/12/22 07:50:14;;;;;;;9.73;5.10;;;;;;;-4.51;68.90;98635.83;1771749;80;21044;-82
2021/12/22 07:52:40;;;;;;;9.28;5.12;;;;;;;-4.54;68.55;98636.09;1765734;80;21069;-82
2021/12/22 07:55:07;;;;;;;7.75;3.92;;;;;;;-4.53;68.88;98641.77;1779808;80;21040;-82
2021/12/22 07:57:34;;;;;;;7.03;3.47;;;;;;;-4.58;68.15;98636.37;1757106;80;21470;-81
2021/12/22 08:00:01;;;;;;;10.40;3.52;;;;;;;-4.55;69.65;98640.80;1753197;80;21060;-82
2021/12/22 08:02:27;;;;;;;5.60;3.25;;;;;;;-4.53;68.85;98646.50;1774411;80;20993;-82
2021/12/22 08:04:53;;;;;;;5.10;2.87;;;;;;;-4.53;68.40;98639.17;1774523;79;20990;-82
2021/12/22 08:07:20;;;;;;;8.20;3.22;;;;;;;-4.55;68.47;98645.57;1800117;80;20977;-81
2021/12/22 08:09:46;;;;;;;6.87;3.75;;;;;;;-4.53;68.29;98648.23;1767771;80;20989;-81
2021/12/22 08:12:13;;;;;;;6.72;3.20;;;;;;;-4.53;68.17;98659.87;1726277;82;21475;-81
2021/12/22 08:14:40;;;;;;;8.20;3.65;;;;;;;-4.46;68.72;98654.51;1688851;83;20997;-81
2021/12/22 08:17:08;;;;;;;6.95;3.58;;;;;;;-4.36;69.44;98655.39;1684138;85;20998;-81
2021/12/22 08:19:35;;;;;;;6.58;3.40;;;;;;;-4.29;68.24;98657.78;1695027;84;21064;-82
2021/12/22 08:22:02;;;;;;;8.93;3.50;;;;;;;-4.26;68.58;98665.28;1693750;83;20956;-82
2021/12/22 08:24:28;;;;;;;5.70;3.10;;;;;;;-4.18;69.01;98665.99;1738869;81;21498;-82
2021/12/22 08:26:55;;;;;;;6.80;3.25;;;;;;;-4.07;69.14;98669.02;1691841;83;21068;-81
2021/12/22 08:29:21;;;;;;;7.50;3.98;;;;;;;-4.04;68.05;98674.30;1728254;82;21467;-81
2021/12/22 08:31:48;;;;;;;6.03;3.02;;;;;;;-4.01;68.21;98675.33;1725539;82;20990;-81
2021/12/22 08:34:22;;;;;;;7.78;3.72;;;;;;;-3.96;68.23;98674.20;1765669;80;21071;-82
2021/12/22 08:39:28;;;;;;;;;;;;;;;-3.96;67.11;98685.85;1763120;80;20941;-82
2021/12/22 08:41:54;;;;;;;35.48;14.73;;;;;;;-3.95;67.51;98693.22;1754516;80;20345;-82
2021/12/22 08:44:22;;;;;;;7.25;3.52;;;;;;;-3.99;66.56;98695.67;1772646;80;20933;-81
2021/12/22 08:46:51;;;;;;;9.05;3.27;;;;;;;-3.98;66.67;98688.38;1765430;80;20974;-77
2021/12/22 08:49:20;;;;;;;6.83;3.60;;;;;;;-4.00;66.22;98687.84;1768422;81;21048;-77
2021/12/22 08:51:49;;;;;;;6.53;3.35;;;;;;;-4.06;65.44;98691.48;1769336;81;21037;-76
2021/12/22 08:54:16;;;;;;;7.78;3.37;;;;;;;-4.12;64.80;98692.12;1765026;80;21000;-75
2021/12/22 08:56:43;;;;;;;5.37;3.05;;;;;;;-4.04;66.55;98685.95;1762237;80;21009;-76
2021/12/22 08:59:12;;;;;;;8.78;3.98;;;;;;;-3.96;65.61;98678.52;1774642;79;21032;-75
2021/12/22 09:01:39;;;;;;;7.80;3.70;;;;;;;-3.91;65.23;98686.91;1780350;79;20989;-75
2021/12/22 09:04:05;;;;;;;6.72;3.55;;;;;;;-3.86;65.68;98680.64;1780492;80;21087;-76
2021/12/22 09:06:32;;;;;;;8.23;3.83;;;;;;;-3.83;65.41;98697.57;1779149;79;21009;-77
2021/12/22 09:08:59;;;;;;;9.65;4.53;;;;;;;-3.85;65.87;98688.44;1780472;79;21052;-75
2021/12/22 09:11:27;;;;;;;6.53;3.42;;;;;;;-3.82;65.95;98694.58;1777701;79;20969;-76
2021/12/22 09:13:53;;;;;;;8.03;3.72;;;;;;;-3.87;65.47;98686.22;1728863;82;21557;-77
2021/12/22 09:16:20;;;;;;;7.95;3.90;;;;;;;-3.93;64.56;98691.56;1740314;82;21153;-75
2021/12/22 09:18:49;;;;;;;7.97;4.12;;;;;;;-3.88;65.54;98692.23;1718116;82;20967;-76
2021/12/22 09:21:16;;;;;;;8.65;4.15;;;;;;;-3.80;66.11;98692.92;1714154;84;21474;-75
2021/12/22 09:23:43;;;;;;;7.92;3.98;;;;;;;-3.73;65.77;98694.52;1709430;82;21446;-75
2021/12/22 09:26:10;;;;;;;6.22;3.80;;;;;;;-3.73;65.61;98689.77;1754112;80;21096;-77
2021/12/22 09:28:36;;;;;;;6.85;3.70;;;;;;;-3.75;64.33;98688.41;1747848;81;20965;-77
2021/12/22 09:31:05;;;;;;;7.37;3.72;;;;;;;-3.75;62.19;98686.21;1803343;79;21000;-75
2021/12/22 09:33:33;;;;;;;7.55;3.60;;;;;;;-3.67;64.42;98684.81;1765662;79;20953;-75
2021/12/22 09:36:03;;;;;;;4.70;2.90;;;;;;;-3.62;64.32;98687.56;1760223;80;21075;-76
2021/12/22 09:38:29;;;;;;;6.70;3.10;;;;;;;-3.53;60.59;98694.83;1748800;82;21077;-81
2021/12/22 09:40:56;;;;;;;4.58;2.67;;;;;;;-3.50;61.22;98691.93;1760779;79;21000;-81
2021/12/22 09:43:23;;;;;;;5.67;3.12;;;;;;;-3.45;57.33;98681.33;1756557;79;21346;-81
2021/12/22 09:45:57;;;;;;;4.20;2.20;;;;;;;-3.41;57.58;98688.80;1768008;79;21490;-81
2021/12/22 09:53:43;;;;;;;4.92;2.80;;;;;;;-3.26;59.10;98685.91;1779710;80;21056;-81
2021/12/22 09:56:14;;;;;;;4.22;2.80;;;;;;;-3.34;52.23;98680.44;1750289;79;20995;-83
2021/12/22 09:58:46;;;;;;;5.25;2.62;;;;;;;-3.32;55.75;98682.66;1757398;80;21032;-82
2021/12/22 10:01:15;;;;;;;5.28;2.35;;;;;;;-3.28;55.19;98678.46;1753273;79;21442;-82
2021/12/22 10:03:42;;;;;;;5.08;2.40;;;;;;;-3.21;55.90;98674.39;1766947;79;20996;-83
2021/12/22 10:06:08;;;;;;;4.35;2.25;;;;;;;-3.15;55.83;98681.52;1797690;79;21010;-82
2021/12/22 10:08:39;;;;;;;5.83;2.80;;;;;;;-3.08;56.38;98683.49;1724452;82;21462;-84
2021/12/22 10:11:11;;;;;;;5.25;2.55;;;;;;;-3.03;54.47;98680.69;1761109;79;21002;-83
2021/12/22 10:13:44;;;;;;;7.62;3.10;;;;;;;-2.97;54.64;98685.19;1752701;79;21664;-83
2021/12/22 10:16:23;;;;;;;6.70;2.83;;;;;;;-2.85;55.42;98678.25;1750746;81;21008;-83
2021/12/22 10:19:06;;;;;;;3.87;2.62;;;;;;;-2.78;55.59;98688.03;1749659;80;21001;-83
2021/12/22 10:21:37;;;;;;;5.17;3.00;;;;;;;-2.89;53.37;98677.67;1782321;80;20976;-83
2021/12/22 10:24:06;;;;;;;4.83;3.10;;;;;;;-2.83;52.77;98686.99;1782224;80;21040;-82
2021/12/22 10:26:34;;;;;;;7.17;2.98;;;;;;;-2.94;52.21;98685.30;1753612;80;21486;-81
2021/12/22 10:29:07;;;;;;;5.47;3.33;;;;;;;-2.86;54.63;98677.80;1749853;79;21426;-81
2021/12/22 10:31:44;;;;;;;6.22;2.90;;;;;;;-2.77;54.31;98679.81;1750002;80;21461;-82
2021/12/22 10:34:14;;;;;;;8.45;3.90;;;;;;;-2.69;54.72;98685.73;1749921;82;21040;-82
2021/12/22 10:36:49;;;;;;;6.58;3.52;;;;;;;-2.57;54.89;98684.41;1749540;82;21498;-83
2021/12/22 10:39:31;;;;;;;3.00;2.00;;;;;;;-2.59;53.68;98683.05;1749326;82;21043;-82
2021/12/22 10:42:09;;;;;;;4.55;2.42;;;;;;;-2.64;51.48;98678.12;1777626;80;20957;-82
2021/12/22 10:44:40;;;;;;;3.92;2.12;;;;;;;-2.68;48.23;98670.66;1770843;79;21025;-83
2021/12/22 10:47:34;;;;;;;4.62;2.37;;;;;;;-2.05;50.67;98667.47;1768057;79;21024;-82
2021/12/22 10:50:07;;;;;;;4.78;2.08;;;;;;;-1.09;51.04;98653.41;1805395;79;21096;-82
2021/12/22 10:52:35;;;;;;;5.50;2.22;;;;;;;0.06;44.00;98655.44;1735834;79;20993;-83
2021/12/22 10:55:14;;;;;;;5.87;2.60;;;;;;;1.21;44.50;98649.52;1759922;78;21025;-82
2021/12/22 10:57:45;;;;;;;3.72;2.30;;;;;;;1.88;39.39;98646.74;1800298;79;20988;-82
2021/12/22 11:00:20;;;;;;;3.22;2.05;;;;;;;2.43;37.22;98640.56;1795249;79;21010;-82
2021/12/22 11:03:06;;;;;;;3.27;2.05;;;;;;;3.04;38.13;98643.06;1790241;79;21057;-82
2021/12/22 11:05:47;;;;;;;3.45;2.33;;;;;;;3.41;34.63;98635.16;1686978;83;21025;-81
2021/12/22 11:08:23;;;;;;;3.77;2.62;;;;;;;4.12;36.96;98629.63;1729056;83;21018;-81
2021/12/22 11:10:52;;;;;;;4.62;2.60;;;;;;;4.36;36.59;98630.20;1684636;85;21042;-82
2021/12/22 11:13:22;;;;;;;5.03;2.67;;;;;;;5.28;35.20;98634.95;1729977;80;21030;-81
2021/12/22 11:15:51;;;;;;;4.30;2.98;;;;;;;5.19;32.55;98625.72;1780145;80;21622;-81
2021/12/22 11:18:34;;;;;;;6.87;3.05;;;;;;;5.53;37.70;98631.89;1790205;80;20990;-82
2021/12/22 11:21:13;;;;;;;4.72;2.85;;;;;;;6.34;35.28;98623.12;1773408;79;20973;-81
2021/12/22 11:23:40;;;;;;;4.67;2.12;;;;;;;5.87;28.51;98625.80;1746639;81;21027;-81
2021/12/22 11:26:08;;;;;;;5.42;2.40;;;;;;;6.71;34.58;98626.97;1729486;81;21048;-81
2021/12/22 11:28:36;;;;;;;4.20;2.15;;;;;;;5.44;29.66;98618.73;1750456;80;20997;-81
2021/12/22 11:31:05;;;;;;;5.25;2.20;;;;;;;5.21;32.32;98620.91;1762871;80;20989;-81
2021/12/22 11:33:33;;;;;;;3.20;2.10;;;;;;;4.61;34.29;98628.16;1752535;80;21045;-81
2021/12/22 11:36:02;;;;;;;3.90;1.90;;;;;;;3.93;34.15;98625.97;1759028;81;20986;-82
2021/12/22 11:38:31;;;;;;;4.62;2.45;;;;;;;4.68;31.05;98619.42;1743247;81;21010;-81
2021/12/22 11:41:31;;;;;;;4.42;2.72;;;;;;;5.27;33.53;98616.97;1728799;83;21416;-82
2021/12/22 11:43:38;;;;;;;3.25;1.90;;;;;;;5.47;31.91;98609.98;1726825;81;21093;-82
2021/12/22 11:46:06;;;;;;;3.70;2.45;;;;;;;5.58;28.98;98617.45;1758958;81;21089;-82
2021/12/22 11:48:34;;;;;;;2.90;1.82;;;;;;;4.62;30.82;98613.69;1758866;81;21014;-82
2021/12/22 11:51:03;;;;;;;4.15;2.85;;;;;;;4.30;31.49;98618.36;1732841;81;20946;-81
2021/12/22 11:53:55;;;;;;;4.25;2.87;;;;;;;4.75;33.35;98616.39;1729381;81;22103;-82
2021/12/22 11:56:46;;;;;;;5.28;3.05;;;;;;;3.98;29.56;98622.09;1728518;83;21062;-82
2021/12/22 11:59:40;;;;;;;3.75;2.37;;;;;;;4.80;30.27;98617.70;1733656;82;21420;-81
2021/12/22 12:02:25;;;;;;;4.40;1.98;;;;;;;5.34;32.97;98611.29;1740911;81;21013;-82